createdAt,value
2023-01-29T00:02:09.740Z,99038.91
2023-01-29T00:04:38.690Z,99037.09
2023-01-29T00:07:08.641Z,99043.59
2023-01-29T00:09:39.017Z,99038.44
2023-01-29T00:12:08.985Z,99029.50
2023-01-29T00:14:38.149Z,99038.91
2023-01-29T00:17:07.198Z,99041.38
2023-01-29T00:19:37.081Z,99043.16
2023-01-29T00:22:06.046Z,99048.03
2023-01-29T00:24:35.264Z,99048.03
2023-01-29T00:27:06.314Z,99049.16
2023-01-29T00:29:35.221Z,99047.22
2023-01-29T00:32:04.270Z,99043.81
2023-01-29T00:34:33.355Z,99046.88
2023-01-29T00:37:08.890Z,99045.25
2023-01-29T00:39:47.711Z,99048.03
2023-01-29T00:42:35.948Z,99048.81
2023-01-29T00:45:07.489Z,99049.47
2023-01-29T00:47:40.121Z,99044.25
2023-01-29T00:50:12.627Z,99050.13
2023-01-29T00:52:42.080Z,99042.00
2023-01-29T00:55:12.775Z,99046.56
2023-01-29T00:57:43.111Z,99041.53
2023-01-29T01:00:16.153Z,99041.69
2023-01-29T01:03:02.509Z,99048.84
2023-01-29T01:05:31.572Z,99048.19
2023-01-29T01:08:00.664Z,99050.78
2023-01-29T01:10:32.045Z,99054.19
2023-01-29T01:13:05.009Z,99054.06
2023-01-29T01:15:41.254Z,99051.47
2023-01-29T01:18:10.248Z,99050.47
2023-01-29T01:20:40.050Z,99052.75
2023-01-29T01:23:09.201Z,99055.19
2023-01-29T01:25:38.161Z,99055.50
2023-01-29T01:28:08.497Z,99051.47
2023-01-29T01:30:37.559Z,99049.97
2023-01-29T01:33:06.521Z,99054.69
2023-01-29T01:35:35.532Z,99053.88
2023-01-29T01:38:04.459Z,99056.97
2023-01-29T01:40:33.513Z,99055.97
2023-01-29T01:43:03.053Z,99065.13
2023-01-29T01:45:35.322Z,99068.53
2023-01-29T01:48:08.713Z,99066.06
2023-01-29T01:50:44.098Z,99074.19
2023-01-29T01:53:16.799Z,99075.66
2023-01-29T01:55:50.824Z,99081.34
2023-01-29T01:58:25.758Z,99089.13
2023-01-29T02:00:56.946Z,99083.25
2023-01-29T02:03:45.605Z,99084.25
2023-01-29T02:06:32.115Z,99079.88
2023-01-29T02:09:24.246Z,99070.13
2023-01-29T02:11:53.311Z,99077.44
2023-01-29T02:14:22.808Z,99074.50
2023-01-29T02:16:53.244Z,99073.22
2023-01-29T02:19:33.529Z,99081.50
2023-01-29T02:22:47.348Z,99088.00
2023-01-29T02:26:04.356Z,99084.25
2023-01-29T02:28:43.057Z,99081.81
2023-01-29T02:31:25.464Z,99093.84
2023-01-29T02:34:07.912Z,99089.47
2023-01-29T02:36:46.819Z,99085.41
2023-01-29T02:39:24.673Z,99090.63
2023-01-29T02:42:02.945Z,99087.22
2023-01-29T02:44:41.587Z,99090.44
2023-01-29T02:47:18.778Z,99085.41
2023-01-29T02:49:53.876Z,99086.88
2023-01-29T02:52:28.366Z,99095.13
2023-01-29T02:55:03.192Z,99093.53
2023-01-29T02:57:37.212Z,99093.53
2023-01-29T03:00:14.060Z,99094.66
2023-01-29T03:02:48.871Z,99105.03
2023-01-29T03:05:25.755Z,99103.13
2023-01-29T03:07:59.333Z,99099.69
2023-01-29T03:10:38.430Z,99105.38
2023-01-29T03:13:15.780Z,99103.78
2023-01-29T03:16:01.426Z,99109.13
2023-01-29T03:19:02.992Z,99102.47
2023-01-29T03:22:00.155Z,99103.91
2023-01-29T03:24:57.994Z,99099.84
2023-01-29T03:27:51.712Z,99109.78
2023-01-29T03:30:41.253Z,99110.25
2023-01-29T03:33:46.945Z,99109.28
2023-01-29T03:36:22.940Z,99119.19
2023-01-29T03:38:52.246Z,99111.53
2023-01-29T03:41:28.483Z,99119.34
2023-01-29T03:44:13.975Z,99113.50
2023-01-29T03:46:53.417Z,99118.03
2023-01-29T03:49:35.272Z,99123.91
2023-01-29T03:52:16.739Z,99115.47
2023-01-29T03:54:59.967Z,99110.59
2023-01-29T03:57:38.858Z,99121.78
2023-01-29T04:00:17.250Z,99122.28
2023-01-29T04:03:05.011Z,99124.56
2023-01-29T04:05:49.227Z,99125.38
2023-01-29T04:08:30.173Z,99126.81
2023-01-29T04:11:11.500Z,99116.56
2023-01-29T04:13:41.233Z,99120.97
2023-01-29T04:16:16.843Z,99116.91
2023-01-29T04:19:00.989Z,99119.00
2023-01-29T04:21:38.284Z,99121.13
2023-01-29T04:24:09.764Z,99114.97
2023-01-29T04:26:59.268Z,99115.94
2023-01-29T04:29:41.727Z,99113.34
2023-01-29T04:32:19.664Z,99119.03
2023-01-29T04:35:08.964Z,99120.50
2023-01-29T04:37:46.103Z,99119.69
2023-01-29T04:40:26.679Z,99114.16
2023-01-29T04:43:06.459Z,99119.03
2023-01-29T04:45:49.940Z,99118.56
2023-01-29T04:48:26.275Z,99120.34
2023-01-29T04:51:03.999Z,99109.78
2023-01-29T04:53:46.540Z,99112.88
2023-01-29T04:56:22.358Z,99113.03
2023-01-29T04:58:56.783Z,99108.50
2023-01-29T05:01:33.231Z,99116.13
2023-01-29T05:04:07.528Z,99115.78
2023-01-29T05:06:38.487Z,99113.16
2023-01-29T05:09:10.440Z,99110.09
2023-01-29T05:11:39.444Z,99108.13
2023-01-29T05:14:12.768Z,99114.78
2023-01-29T05:16:46.507Z,99113.19
2023-01-29T05:19:16.936Z,99118.06
2023-01-29T05:21:49.061Z,99125.22
2023-01-29T05:24:21.973Z,99119.50
2023-01-29T05:27:11.515Z,99121.97
2023-01-29T05:29:44.835Z,99121.47
2023-01-29T05:32:14.251Z,99120.50
2023-01-29T05:34:43.269Z,99113.19
2023-01-29T05:37:12.593Z,99117.91
2023-01-29T05:39:42.920Z,99126.03
2023-01-29T05:42:11.890Z,99126.53
2023-01-29T05:44:40.823Z,99126.69
2023-01-29T05:47:09.847Z,99118.25
2023-01-29T05:49:39.098Z,99117.25
2023-01-29T05:52:08.084Z,99112.06
2023-01-29T05:54:37.035Z,99120.19
2023-01-29T05:57:07.391Z,99118.38
2023-01-29T05:59:39.556Z,99124.25
2023-01-29T06:02:08.716Z,99124.41
2023-01-29T06:04:37.757Z,99120.81
2023-01-29T06:07:06.709Z,99119.69
2023-01-29T06:09:35.628Z,99133.00
2023-01-29T06:12:06.279Z,99130.06
2023-01-29T06:14:36.597Z,99133.00
2023-01-29T06:17:05.875Z,99132.34
2023-01-29T06:19:34.845Z,99135.59
2023-01-29T06:22:03.891Z,99136.41
2023-01-29T06:24:33.854Z,99143.91
2023-01-29T06:27:02.768Z,99140.16
2023-01-29T06:29:31.741Z,99155.59
2023-01-29T06:32:02.283Z,99150.25
2023-01-29T06:34:31.332Z,99163.06
2023-01-29T06:37:00.224Z,99170.38
2023-01-29T06:39:29.183Z,99175.25
2023-01-29T06:41:58.176Z,99169.75
2023-01-29T06:44:27.578Z,99171.03
2023-01-29T06:46:56.822Z,99177.06
2023-01-29T06:49:27.192Z,99180.50
2023-01-29T06:51:56.173Z,99191.53
2023-01-29T06:54:25.192Z,99184.38
2023-01-29T06:56:54.147Z,99193.31
2023-01-29T06:59:23.301Z,99190.53
2023-01-29T07:01:52.296Z,99187.31
2023-01-29T07:04:21.277Z,99190.56
2023-01-29T07:06:51.602Z,99184.38
2023-01-29T07:09:20.578Z,99169.44
2023-01-29T07:11:49.709Z,99157.22
2023-01-29T07:14:18.612Z,99150.56
2023-01-29T07:16:47.564Z,99151.56
2023-01-29T07:19:16.773Z,99154.28
2023-01-29T07:21:45.761Z,99149.91
2023-01-29T07:24:16.256Z,99144.00
2023-01-29T07:26:45.266Z,99151.66
2023-01-29T07:29:14.127Z,99135.66
2023-01-29T07:31:43.156Z,99140.69
2023-01-29T07:34:12.134Z,99142.94
2023-01-29T07:36:41.132Z,99146.00
2023-01-29T07:39:10.103Z,99149.72
2023-01-29T07:41:40.473Z,99153.31
2023-01-29T07:44:17.819Z,99146.44
2023-01-29T07:46:46.753Z,99150.38
2023-01-29T07:49:16.050Z,99149.03
2023-01-29T07:51:45.000Z,99152.25
2023-01-29T07:54:13.853Z,99144.09
2023-01-29T07:56:44.164Z,99144.09
2023-01-29T07:59:13.214Z,99145.03
2023-01-29T08:01:42.126Z,99145.78
2023-01-29T08:04:11.183Z,99139.41
2023-01-29T08:06:40.262Z,99145.91
2023-01-29T08:09:09.457Z,99144.09
2023-01-29T08:11:38.525Z,99147.53
2023-01-29T08:14:09.456Z,99147.81
2023-01-29T08:16:40.664Z,99144.84
2023-01-29T08:19:10.435Z,99149.03
2023-01-29T08:21:39.365Z,99156.00
2023-01-29T08:24:08.662Z,99158.25
2023-01-29T08:26:37.659Z,99159.06
2023-01-29T08:29:07.990Z,99176.63
2023-01-29T08:31:38.089Z,99166.75
2023-01-29T08:34:07.135Z,99157.56
2023-01-29T08:36:36.559Z,99160.69
2023-01-29T08:39:05.575Z,99169.22
2023-01-29T08:41:34.735Z,99167.16
2023-01-29T08:44:04.480Z,99168.78
2023-01-29T08:46:34.849Z,99167.44
2023-01-29T08:49:03.929Z,99163.78
2023-01-29T08:51:33.033Z,99172.34
2023-01-29T08:54:01.977Z,99174.56
2023-01-29T08:56:31.076Z,99178.63
2023-01-29T08:58:59.994Z,99187.91
2023-01-29T09:01:29.206Z,99182.13
2023-01-29T09:03:59.676Z,99191.16
2023-01-29T09:06:28.727Z,99191.44
2023-01-29T09:08:57.626Z,99199.31
2023-01-29T09:11:26.698Z,99205.13
2023-01-29T09:13:55.592Z,99198.41
2023-01-29T09:16:24.611Z,99200.97
2023-01-29T09:18:54.544Z,99193.34
2023-01-29T09:21:24.828Z,99197.53
2023-01-29T09:23:53.825Z,99199.41
2023-01-29T09:26:22.849Z,99197.09
2023-01-29T09:28:52.163Z,99204.72
2023-01-29T09:31:21.347Z,99209.22
2023-01-29T09:33:50.991Z,99208.53
2023-01-29T09:36:21.600Z,99211.78
2023-01-29T09:38:52.119Z,99213.91
2023-01-29T09:41:37.385Z,99215.84
2023-01-29T09:44:18.515Z,99217.00
2023-01-29T09:46:51.650Z,99215.59
2023-01-29T09:49:27.639Z,99215.03
2023-01-29T09:52:04.404Z,99208.63
2023-01-29T09:54:48.125Z,99211.63
2023-01-29T09:57:22.269Z,99208.03
2023-01-29T09:59:51.799Z,99205.78
2023-01-29T10:02:52.963Z,99204.50
2023-01-29T10:05:49.191Z,99207.56
2023-01-29T10:08:49.429Z,99195.81
2023-01-29T10:11:37.137Z,99195.16
2023-01-29T10:14:19.859Z,99202.81
2023-01-29T10:17:08.560Z,99193.56
2023-01-29T10:20:03.686Z,99192.13
2023-01-29T10:22:58.983Z,99193.75
2023-01-29T10:25:28.923Z,99192.31
2023-01-29T10:28:01.641Z,99199.81
2023-01-29T10:30:35.311Z,99190.78
2023-01-29T10:33:08.017Z,99182.31
2023-01-29T10:35:43.630Z,99180.09
2023-01-29T10:38:32.789Z,99185.75
2023-01-29T10:41:27.405Z,99176.84
2023-01-29T10:44:13.725Z,99182.69
2023-01-29T10:47:03.288Z,99176.09
2023-01-29T10:49:53.873Z,99176.47
2023-01-29T10:52:38.053Z,99191.53
2023-01-29T10:55:27.030Z,99194.84
2023-01-29T10:58:07.458Z,99190.78
2023-01-29T11:00:41.440Z,99185.22
2023-01-29T11:03:27.959Z,99182.81
2023-01-29T11:06:10.219Z,99174.84
2023-01-29T11:08:47.337Z,99177.75
2023-01-29T11:11:18.375Z,99174.38
2023-01-29T11:13:57.289Z,99159.88
2023-01-29T11:16:30.348Z,99161.06
2023-01-29T11:19:01.663Z,99158.72
2023-01-29T11:21:31.263Z,99153.69
2023-01-29T11:24:12.712Z,99154.28
2023-01-29T11:26:43.816Z,99143.56
2023-01-29T11:29:41.158Z,99139.91
2023-01-29T11:32:15.820Z,99138.81
2023-01-29T11:35:02.980Z,99126.78
2023-01-29T11:37:38.605Z,99135.31
2023-01-29T11:40:38.437Z,99127.53
2023-01-29T11:43:30.917Z,99124.09
2023-01-29T11:46:03.679Z,99121.56
2023-01-29T11:48:45.415Z,99121.81
2023-01-29T11:51:24.623Z,99116.72
2023-01-29T11:53:58.001Z,99109.78
2023-01-29T11:56:33.805Z,99102.38
2023-01-29T11:59:04.626Z,99092.44
2023-01-29T12:01:37.866Z,99099.16
2023-01-29T12:04:19.583Z,99083.19
2023-01-29T12:06:53.707Z,99092.56
2023-01-29T12:09:26.094Z,99087.13
2023-01-29T12:11:55.868Z,99086.19
2023-01-29T12:14:34.559Z,99085.28
2023-01-29T12:17:11.836Z,99083.16
2023-01-29T12:19:51.692Z,99089.66
2023-01-29T12:22:28.701Z,99094.00
2023-01-29T12:25:03.142Z,99093.53
2023-01-29T12:27:39.332Z,99082.66
2023-01-29T12:30:16.308Z,99093.97
2023-01-29T12:32:51.736Z,99091.22
2023-01-29T12:35:27.094Z,99090.81
2023-01-29T12:38:02.585Z,99078.88
2023-01-29T12:40:39.085Z,99072.97
2023-01-29T12:43:17.346Z,99063.00
2023-01-29T12:45:52.195Z,99071.09
2023-01-29T12:48:27.389Z,99071.34
2023-01-29T12:51:09.608Z,99067.66
2023-01-29T12:53:44.788Z,99056.41
2023-01-29T12:56:20.044Z,99047.38
2023-01-29T12:58:53.880Z,99047.19
2023-01-29T13:01:32.917Z,99043.13
2023-01-29T13:04:06.688Z,99039.91
2023-01-29T13:06:43.009Z,99036.88
2023-01-29T13:09:18.351Z,99031.06
2023-01-29T13:11:53.575Z,99028.44
2023-01-29T13:14:26.438Z,99029.56
2023-01-29T13:17:04.261Z,99033.59
2023-01-29T13:19:39.419Z,99024.00
2023-01-29T13:22:20.702Z,99016.63
2023-01-29T13:25:03.666Z,99012.47
2023-01-29T13:27:36.610Z,99013.38
2023-01-29T13:30:07.545Z,99005.50
2023-01-29T13:32:37.557Z,99010.56
2023-01-29T13:35:17.441Z,99009.44
2023-01-29T13:37:53.354Z,98999.94
2023-01-29T13:40:27.740Z,99000.53
2023-01-29T13:43:00.202Z,99003.84
2023-01-29T13:45:37.289Z,99010.44
2023-01-29T13:48:19.646Z,99016.47
2023-01-29T13:50:49.245Z,99004.72
2023-01-29T13:53:26.272Z,99012.59
2023-01-29T13:55:55.333Z,99008.88
2023-01-29T13:58:55.423Z,99009.56
2023-01-29T14:02:04.996Z,99013.06
2023-01-29T14:04:34.346Z,99007.25
2023-01-29T14:07:23.920Z,99006.56
2023-01-29T14:10:18.021Z,98998.47
2023-01-29T14:12:53.348Z,99006.22
2023-01-29T14:15:32.227Z,99005.41
2023-01-29T14:18:25.254Z,98999.84
2023-01-29T14:21:04.910Z,98999.06
2023-01-29T14:23:46.227Z,98995.25
2023-01-29T14:26:31.240Z,99005.09
2023-01-29T14:29:05.748Z,98995.03
2023-01-29T14:31:44.994Z,98993.41
2023-01-29T14:34:23.624Z,98996.88
2023-01-29T14:36:56.880Z,98987.97
2023-01-29T14:39:35.243Z,98989.97
2023-01-29T14:42:18.138Z,98995.97
2023-01-29T14:45:01.274Z,98990.41
2023-01-29T14:48:20.591Z,98991.94
2023-01-29T14:50:59.326Z,98986.97
2023-01-29T14:53:47.060Z,98985.81
2023-01-29T14:56:20.174Z,98979.44
2023-01-29T14:58:55.349Z,98982.09
2023-01-29T15:01:32.870Z,98981.03
2023-01-29T15:04:06.495Z,98978.59
2023-01-29T15:06:42.581Z,98980.22
2023-01-29T15:09:16.613Z,98978.41
2023-01-29T15:11:55.926Z,98979.06
2023-01-29T15:14:33.844Z,98971.91
2023-01-29T15:17:18.788Z,98966.84
2023-01-29T15:19:49.638Z,98967.72
2023-01-29T15:22:20.853Z,98967.47
2023-01-29T15:25:08.385Z,98961.13
2023-01-29T15:27:37.658Z,98960.31
2023-01-29T15:30:16.074Z,98955.91
2023-01-29T15:32:45.841Z,98957.06
2023-01-29T15:35:28.729Z,98953.22
2023-01-29T15:38:03.914Z,98955.56
2023-01-29T15:40:34.096Z,98946.88
2023-01-29T15:43:03.400Z,98945.94
2023-01-29T15:45:36.411Z,98945.69
2023-01-29T15:48:13.500Z,98942.91
2023-01-29T15:50:44.003Z,98944.88
2023-01-29T15:53:21.131Z,98948.34
2023-01-29T15:55:51.647Z,98944.81
2023-01-29T15:58:25.678Z,98950.91
2023-01-29T16:01:01.044Z,98956.44
2023-01-29T16:03:34.632Z,98953.69
2023-01-29T16:06:06.942Z,98951.03
2023-01-29T16:08:36.769Z,98954.03
2023-01-29T16:11:08.582Z,98955.41
2023-01-29T16:13:44.276Z,98970.63
2023-01-29T16:16:24.849Z,98972.72
2023-01-29T16:19:00.518Z,98978.38
2023-01-29T16:21:34.314Z,98984.59
2023-01-29T16:24:09.505Z,98986.69
2023-01-29T16:26:43.705Z,98981.34
2023-01-29T16:29:16.145Z,98991.47
2023-01-29T16:31:48.351Z,98988.44
2023-01-29T16:34:25.261Z,98993.28
2023-01-29T16:36:55.765Z,98990.94
2023-01-29T16:39:28.919Z,98991.13
2023-01-29T16:42:31.613Z,98993.91
2023-01-29T16:45:02.944Z,99003.84
2023-01-29T16:47:37.084Z,98998.09
2023-01-29T16:50:35.945Z,98998.09
2023-01-29T16:53:14.289Z,99014.72
2023-01-29T16:55:46.984Z,99001.06
2023-01-29T16:58:19.583Z,99008.22
2023-01-29T17:00:51.740Z,99005.25
2023-01-29T17:03:26.491Z,99011.88
2023-01-29T17:05:56.121Z,99018.06
2023-01-29T17:08:29.019Z,99014.06
2023-01-29T17:10:58.381Z,99014.06
2023-01-29T17:13:32.219Z,99015.53
2023-01-29T17:16:03.870Z,99020.25
2023-01-29T17:18:34.239Z,99027.41
2023-01-29T17:21:03.261Z,99022.34
2023-01-29T17:23:32.241Z,99016.59
2023-01-29T17:26:02.488Z,99018.88
2023-01-29T17:28:32.546Z,99023.75
2023-01-29T17:31:06.515Z,99020.97
2023-01-29T17:33:41.697Z,99007.94
2023-01-29T17:36:14.285Z,99012.69
2023-01-29T17:38:43.849Z,99009.44
2023-01-29T17:41:20.954Z,99020.50
2023-01-29T17:43:50.118Z,99014.84
2023-01-29T17:46:19.936Z,99019.13
2023-01-29T17:48:50.745Z,99018.63
2023-01-29T17:51:20.561Z,99023.69
2023-01-29T17:53:49.791Z,99017.50
2023-01-29T17:56:28.672Z,99019.44
2023-01-29T17:58:58.299Z,99009.03
2023-01-29T18:01:27.399Z,98996.00
2023-01-29T18:03:58.561Z,99001.53
2023-01-29T18:06:30.366Z,99002.69
2023-01-29T18:08:59.685Z,99000.41
2023-01-29T18:11:29.876Z,99000.41
2023-01-29T18:14:02.749Z,98999.72
2023-01-29T18:16:44.665Z,99002.97
2023-01-29T18:19:22.444Z,98994.06
2023-01-29T18:21:52.601Z,99001.06
2023-01-29T18:24:22.207Z,98998.97
2023-01-29T18:26:52.170Z,98999.16
2023-01-29T18:29:21.658Z,98995.91
2023-01-29T18:31:50.841Z,98996.19
2023-01-29T18:34:21.429Z,98993.63
2023-01-29T18:36:50.853Z,99000.88
2023-01-29T18:39:19.772Z,99004.69
2023-01-29T18:41:48.699Z,99003.06
2023-01-29T18:44:17.912Z,99005.38
2023-01-29T18:46:47.283Z,98993.81
2023-01-29T18:49:16.442Z,99002.34
2023-01-29T18:51:46.953Z,98999.56
2023-01-29T18:54:18.141Z,99001.19
2023-01-29T18:57:13.137Z,98996.59
2023-01-29T18:59:36.731Z,99001.31
2023-01-29T19:02:06.032Z,98986.22
2023-01-29T19:04:35.266Z,98995.66
2023-01-29T19:07:05.964Z,98978.91
2023-01-29T19:09:35.325Z,98994.28
2023-01-29T19:12:06.455Z,98990.38
2023-01-29T19:14:38.713Z,98976.06
2023-01-29T19:17:08.260Z,98983.91
2023-01-29T19:19:37.441Z,98975.94
2023-01-29T19:22:08.236Z,98966.34
2023-01-29T19:24:39.064Z,98964.75
2023-01-29T19:27:08.585Z,98965.41
2023-01-29T19:29:37.717Z,98972.56
2023-01-29T19:32:08.820Z,98966.50
2023-01-29T19:34:38.338Z,98963.66
2023-01-29T19:37:09.250Z,98965.94
2023-01-29T19:39:38.773Z,98960.41
2023-01-29T19:42:08.480Z,98966.16
2023-01-29T19:44:40.216Z,98965.25
2023-01-29T19:47:10.422Z,98970.00
2023-01-29T19:49:40.502Z,98975.81
2023-01-29T19:52:14.927Z,98964.25
2023-01-29T19:54:46.279Z,98961.47
2023-01-29T19:57:15.330Z,98964.66
2023-01-29T19:59:45.943Z,98962.59
2023-01-29T20:02:16.100Z,98967.41
2023-01-29T20:04:48.374Z,98962.59
2023-01-29T20:07:21.106Z,98949.59
2023-01-29T20:09:52.749Z,98948.41
2023-01-29T20:12:21.928Z,98951.50
2023-01-29T20:14:52.269Z,98946.66
2023-01-29T20:17:22.771Z,98950.63
2023-01-29T20:19:51.824Z,98942.59
2023-01-29T20:22:22.349Z,98945.16
2023-01-29T20:24:51.554Z,98938.25
2023-01-29T20:27:21.913Z,98937.31
2023-01-29T20:29:52.625Z,98937.25
2023-01-29T20:32:22.171Z,98933.16
2023-01-29T20:34:52.392Z,98932.91
2023-01-29T20:37:23.001Z,98915.50
2023-01-29T20:39:51.979Z,98909.25
2023-01-29T20:42:20.961Z,98909.75
2023-01-29T20:44:50.430Z,98904.91
2023-01-29T20:47:19.666Z,98915.16
2023-01-29T20:49:49.129Z,98908.91
2023-01-29T20:52:18.260Z,98908.25
2023-01-29T20:54:49.262Z,98893.03
2023-01-29T20:57:18.542Z,98901.50
2023-01-29T20:59:48.025Z,98903.28
2023-01-29T21:02:17.194Z,98886.13
2023-01-29T21:04:46.223Z,98895.97
2023-01-29T21:07:16.018Z,98891.34
2023-01-29T21:09:45.113Z,98898.31
2023-01-29T21:12:17.320Z,98894.09
2023-01-29T21:14:46.470Z,98891.16
2023-01-29T21:17:16.223Z,98889.63
2023-01-29T21:19:45.375Z,98890.97
2023-01-29T21:22:14.797Z,98891.53
2023-01-29T21:24:43.815Z,98889.69
2023-01-29T21:27:12.861Z,98884.53
2023-01-29T21:29:43.788Z,98891.63
2023-01-29T21:32:12.769Z,98878.03
2023-01-29T21:34:42.563Z,98877.22
2023-01-29T21:37:12.092Z,98878.84
2023-01-29T21:39:43.211Z,98869.34
2023-01-29T21:42:29.770Z,98870.66
2023-01-29T21:45:00.358Z,98864.63
2023-01-29T21:47:29.435Z,98857.34
2023-01-29T21:49:58.804Z,98865.69
2023-01-29T21:52:29.182Z,98854.22
2023-01-29T21:54:58.563Z,98852.63
2023-01-29T21:57:27.669Z,98845.47
2023-01-29T21:59:57.816Z,98853.69
2023-01-29T22:02:30.998Z,98848.31
2023-01-29T22:05:17.694Z,98852.75
2023-01-29T22:07:48.309Z,98843.69
2023-01-29T22:10:19.162Z,98843.53
2023-01-29T22:12:49.245Z,98841.56
2023-01-29T22:15:18.433Z,98831.28
2023-01-29T22:17:49.103Z,98829.84
2023-01-29T22:20:18.879Z,98826.31
2023-01-29T22:22:48.148Z,98818.38
2023-01-29T22:25:20.095Z,98816.72
2023-01-29T22:27:49.203Z,98810.09
2023-01-29T22:30:19.465Z,98801.53
2023-01-29T22:32:50.468Z,98807.78
2023-01-29T22:35:19.477Z,98803.72
2023-01-29T22:37:48.473Z,98792.53
2023-01-29T22:40:18.209Z,98797.06
2023-01-29T22:42:47.807Z,98790.09
2023-01-29T22:45:17.174Z,98788.47
2023-01-29T22:47:46.093Z,98782.97
2023-01-29T22:50:18.290Z,98781.84
2023-01-29T22:52:54.083Z,98779.44
2023-01-29T22:55:23.244Z,98770.81
2023-01-29T22:57:53.450Z,98768.72
2023-01-29T23:00:23.050Z,98766.81
2023-01-29T23:02:52.502Z,98765.78
2023-01-29T23:05:22.787Z,98761.56
2023-01-29T23:07:51.743Z,98753.72
2023-01-29T23:10:20.916Z,98756.88
2023-01-29T23:12:49.876Z,98748.69
2023-01-29T23:15:18.893Z,98750.44
2023-01-29T23:17:48.534Z,98750.09
2023-01-29T23:20:20.598Z,98750.38
2023-01-29T23:22:51.299Z,98750.25
2023-01-29T23:25:20.396Z,98738.44
2023-01-29T23:27:48.333Z,98743.56
2023-01-29T23:30:18.280Z,98737.06
2023-01-29T23:32:47.715Z,98728.41
2023-01-29T23:35:16.939Z,98734.31
2023-01-29T23:37:45.863Z,98730.81
2023-01-29T23:40:16.836Z,98728.41
2023-01-29T23:42:46.027Z,98733.44
2023-01-29T23:45:15.197Z,98733.44
2023-01-29T23:47:44.209Z,98741.03
2023-01-29T23:50:13.605Z,98730.34
2023-01-29T23:52:42.621Z,98724.31
2023-01-29T23:55:11.616Z,98729.50
2023-01-29T23:57:41.968Z,98726.41
